Time;durP1;ratioP1;P1;durP2;ratioP2;P2;SDS_P1;SDS_P2;PMS_P1;PMS_P2;Temp;Humidity;BMP_temperature;BMP_pressure;BME280_temperature;BME280_humidity;BME280_pressure;Samples;Min_cycle;Max_cycle;Signal;HPM_P1;HPM_P2
2022/02/10 00:20:10;;;;;;;11.20;8.17;;;3.40;99.90;;;;;;6219527;23;20209;-83
2022/02/10 00:36:03;;;;;;;8.67;7.37;;;3.30;99.90;;;;;;6220559;23;20436;-83
2022/02/10 00:38:33;;;;;;;9.10;8.20;;;3.20;99.90;;;;;;6191852;23;20854;-82
2022/02/10 00:40:59;;;;;;;9.07;7.03;;;3.20;99.90;;;;;;6197108;23;20393;-83
2022/02/10 00:43:24;;;;;;;8.23;7.03;;;3.30;99.90;;;;;;6196037;23;20763;-82
2022/02/10 00:45:50;;;;;;;10.70;7.80;;;3.30;99.90;;;;;;6191926;23;20462;-83
2022/02/10 00:48:17;;;;;;;8.13;7.33;;;3.40;99.90;;;;;;6191665;23;20186;-83
2022/02/10 00:50:45;;;;;;;8.07;7.13;;;3.30;99.90;;;;;;6187136;23;20586;-83
2022/02/10 00:53:28;;;;;;;8.60;6.83;;;3.30;99.90;;;;;;6193696;23;20694;-83
2022/02/10 00:55:54;;;;;;;7.73;6.93;;;3.30;99.90;;;;;;6191975;23;20841;-82
2022/02/10 00:58:32;;;;;;;8.40;6.80;;;3.30;99.90;;;;;;6191887;23;20470;-82
2022/02/10 01:14:31;;;;;;;8.77;7.77;;;3.20;99.90;;;;;;6220155;23;20951;-82
2022/02/10 01:30:15;;;;;;;8.63;6.90;;;3.20;99.90;;;;;;6217460;23;20684;-83
2022/02/10 01:32:44;;;;;;;8.87;7.10;;;3.20;99.90;;;;;;6193956;23;20386;-83
2022/02/10 01:35:13;;;;;;;9.67;6.83;;;3.20;99.90;;;;;;6191253;23;20380;-83
2022/02/10 01:37:40;;;;;;;8.90;7.00;;;3.10;99.90;;;;;;6190246;23;20973;-83
2022/02/10 01:40:12;;;;;;;8.20;7.40;;;3.00;99.90;;;;;;6189489;23;20899;-84
2022/02/10 02:04:21;;;;;;;8.43;6.47;;;2.90;99.90;;;;;;6220415;23;20826;-83
2022/02/10 02:06:50;;;;;;;7.50;6.40;;;2.90;99.90;;;;;;6191632;23;20794;-83
2022/02/10 02:09:17;;;;;;;9.73;6.80;;;3.00;99.90;;;;;;6191040;23;20872;-83
2022/02/10 02:11:51;;;;;;;10.23;7.50;;;3.00;99.90;;;;;;6191088;23;20389;-83
2022/02/10 02:14:20;;;;;;;9.50;6.83;;;3.00;99.90;;;;;;6192797;23;20408;-84
2022/02/10 02:17:00;;;;;;;8.03;6.60;;;3.00;99.90;;;;;;6194630;23;20393;-84
2022/02/10 02:19:26;;;;;;;8.03;7.20;;;3.00;99.90;;;;;;6194766;23;20437;-84
2022/02/10 02:22:00;;;;;;;8.57;6.00;;;3.00;99.90;;;;;;6193365;23;20925;-84
2022/02/10 02:24:26;;;;;;;6.97;6.27;;;3.00;99.90;;;;;;6191609;23;20722;-84
2022/02/10 02:26:53;;;;;;;8.30;6.60;;;3.00;99.90;;;;;;6192584;23;20390;-84
2022/02/10 02:29:28;;;;;;;7.57;6.07;;;3.10;99.90;;;;;;6194111;23;20560;-84
2022/02/10 02:32:06;;;;;;;7.73;6.23;;;3.10;99.90;;;;;;6192289;23;20377;-83
2022/02/10 03:04:45;;;;;;;10.47;6.37;;;2.60;99.90;;;;;;6221752;23;20412;-83
2022/02/10 03:10:05;;;;;;;7.13;6.40;;;2.50;99.90;;;;;;6232188;23;20496;-83
2022/02/10 03:12:31;;;;;;;9.70;6.57;;;2.50;99.90;;;;;;6192427;23;20390;-82
2022/02/10 03:15:01;;;;;;;9.10;7.03;;;2.50;99.90;;;;;;6190849;23;20403;-83
2022/02/10 03:17:44;;;;;;;8.97;6.80;;;2.40;99.90;;;;;;6195175;23;20154;-83
2022/02/10 04:16:16;;;;;;;7.73;6.33;;;2.20;99.90;;;;;;6230143;23;20193;-82
2022/02/10 04:24:42;;;;;;;6.70;5.87;;;2.10;99.90;;;;;;6136543;23;20178;-82
2022/02/10 04:27:46;;;;;;;7.57;6.10;;;2.10;99.90;;;;;;6112902;23;20717;-82
2022/02/10 04:30:29;;;;;;;8.30;6.40;;;2.10;99.90;;;;;;6222425;23;20385;-84
2022/02/10 04:57:13;;;;;;;8.83;5.47;;;2.20;99.90;;;;;;6228443;23;20366;-82
2022/02/10 05:08:37;;;;;;;5.57;4.77;;;2.30;99.90;;;;;;6230726;23;20774;-83
2022/02/10 05:19:51;;;;;;;9.37;4.77;;;2.40;99.90;;;;;;6230534;23;20424;-83
2022/02/10 05:35:19;;;;;;;8.90;7.30;;;2.30;99.90;;;;;;6219839;23;20417;-84
2022/02/10 05:37:50;;;;;;;7.43;5.83;;;2.20;99.90;;;;;;6192349;23;20238;-83
2022/02/10 05:46:02;;;;;;;7.33;4.90;;;2.10;99.90;;;;;;6227958;23;20821;-84
2022/02/10 05:54:02;;;;;;;5.67;5.10;;;2.00;99.90;;;;;;6222717;23;20406;-83
2022/02/10 06:56:48;;;;;;;8.30;5.70;;;1.80;99.90;;;;;;6234410;23;20857;-84
2022/02/10 08:54:59;;;;;;;7.23;6.00;;;7.50;99.90;;;;;;6222813;23;20491;-84
2022/02/10 09:03:13;;;;;;;6.80;5.63;;;7.70;99.90;;;;;;6220340;23;20876;-84
2022/02/10 09:09:42;;;;;;;8.70;6.00;;;8.00;99.90;;;;;;6222005;23;20604;-85
2022/02/10 10:03:05;;;;;;;4.60;3.67;;;11.60;96.70;;;;;;6164213;23;20381;-85
2022/02/10 10:05:37;;;;;;;4.53;3.40;;;11.60;95.80;;;;;;6220281;23;20386;-85
2022/02/10 10:14:24;;;;;;;4.30;3.10;;;11.80;95.20;;;;;;6131237;23;20408;-85
2022/02/10 10:22:47;;;;;;;3.77;3.37;;;11.80;94.70;;;;;;6234188;23;20409;-85
2022/02/10 10:56:14;;;;;;;6.03;4.03;;;13.00;92.80;;;;;;6224176;23;20742;-84
2022/02/10 11:08:06;;;;;;;6.27;3.90;;;13.10;92.20;;;;;;6215939;23;20369;-85
2022/02/10 11:38:09;;;;;;;3.87;3.53;;;13.00;92.70;;;;;;6212036;23;20743;-85
2022/02/10 11:46:40;;;;;;;6.87;4.47;;;13.60;91.90;;;;;;6215612;23;20801;-83
2022/02/10 14:12:08;;;;;;;7.40;5.70;;;10.80;99.30;;;;;;6216132;23;20934;-86
2022/02/10 14:16:50;;;;;;;9.00;5.37;;;10.70;99.50;;;;;;6222926;23;20406;-86
2022/02/10 14:19:27;;;;;;;6.97;5.53;;;10.70;99.40;;;;;;6185736;23;20434;-85
2022/02/10 14:22:09;;;;;;;6.83;6.00;;;10.70;99.90;;;;;;6186254;23;20397;-86
2022/02/10 14:27:20;;;;;;;10.80;6.50;;;10.60;99.90;;;;;;6216627;23;20388;-86
2022/02/10 14:29:47;;;;;;;9.30;5.70;;;10.40;99.90;;;;;;6198338;23;20835;-86
2022/02/10 14:32:16;;;;;;;8.00;5.93;;;10.40;99.90;;;;;;6195655;23;20393;-86
2022/02/10 14:34:43;;;;;;;7.43;6.60;;;10.30;99.90;;;;;;6187194;23;21173;-86
2022/02/10 15:20:46;;;;;;;8.80;5.97;;;9.60;99.90;;;;;;6126365;23;20432;-85
2022/02/10 16:18:15;;;;;;;7.93;3.67;;;8.40;99.90;;;;;;6217005;23;20945;-86
2022/02/10 16:20:48;;;;;;;3.97;3.40;;;8.40;99.90;;;;;;6191225;23;20493;-87
2022/02/10 16:23:18;;;;;;;4.60;3.20;;;8.40;99.90;;;;;;6189907;23;20382;-86
2022/02/10 16:25:51;;;;;;;4.10;3.67;;;8.40;99.90;;;;;;6189240;23;20396;-86
2022/02/10 16:28:28;;;;;;;5.13;3.30;;;8.40;99.90;;;;;;6187351;23;20454;-86
2022/02/10 16:30:55;;;;;;;5.63;3.23;;;8.40;99.90;;;;;;6184627;23;20701;-86
2022/02/10 16:33:21;;;;;;;3.20;2.90;;;8.30;99.90;;;;;;6186727;23;20391;-86
2022/02/10 16:35:46;;;;;;;3.83;3.43;;;8.30;99.90;;;;;;6184726;23;20862;-86
2022/02/10 16:38:12;;;;;;;3.10;2.80;;;8.40;99.90;;;;;;6181670;23;20786;-86
2022/02/10 16:40:39;;;;;;;2.90;2.57;;;8.30;99.90;;;;;;6184120;23;20581;-87
2022/02/10 16:43:06;;;;;;;4.10;3.30;;;8.30;99.90;;;;;;6187916;23;20203;-85
2022/02/10 16:45:31;;;;;;;4.83;4.30;;;8.30;99.90;;;;;;6188247;23;20399;-86
2022/02/10 16:47:58;;;;;;;4.47;3.17;;;8.30;99.90;;;;;;6185574;23;20566;-86
2022/02/10 16:50:24;;;;;;;5.03;4.50;;;8.30;99.90;;;;;;6185258;23;20169;-86
2022/02/10 16:52:57;;;;;;;4.93;4.47;;;8.30;99.90;;;;;;6187027;23;20815;-86
2022/02/10 16:55:42;;;;;;;6.17;3.57;;;8.30;99.90;;;;;;6181780;23;20747;-86
2022/02/10 16:58:33;;;;;;;3.30;3.00;;;8.30;99.90;;;;;;6184181;23;20393;-87
2022/02/10 17:32:34;;;;;;;7.63;4.30;;;8.20;99.90;;;;;;6222524;23;21200;-88
2022/02/10 17:35:18;;;;;;;5.30;3.67;;;8.30;99.90;;;;;;6179685;23;20766;-87
2022/02/10 17:46:12;;;;;;;7.10;4.90;;;8.10;99.90;;;;;;6212069;23;20698;-87
2022/02/10 17:51:30;;;;;;;7.43;5.67;;;8.20;99.90;;;;;;6211834;23;20392;-85
2022/02/10 17:54:00;;;;;;;6.27;5.67;;;8.20;99.90;;;;;;6179044;23;20380;-85
2022/02/10 17:56:26;;;;;;;6.70;5.63;;;8.20;99.90;;;;;;6177400;23;20400;-85
2022/02/10 17:59:02;;;;;;;10.83;6.50;;;8.20;99.90;;;;;;6203352;23;21109;-86
2022/02/10 18:04:12;;;;;;;8.03;4.80;;;8.10;99.90;;;;;;6210436;23;20405;-87
2022/02/10 18:06:52;;;;;;;9.03;4.60;;;8.10;99.90;;;;;;6180988;23;20385;-87
2022/02/10 18:15:04;;;;;;;6.40;4.77;;;8.10;99.90;;;;;;6219436;23;20404;-86
2022/02/10 18:17:35;;;;;;;8.63;5.27;;;8.10;99.90;;;;;;6166684;23;20683;-87
2022/02/10 18:20:10;;;;;;;6.50;3.90;;;8.00;99.90;;;;;;6185068;23;20512;-86
2022/02/10 18:23:12;;;;;;;4.37;3.77;;;8.00;99.90;;;;;;6183412;23;20397;-87
2022/02/10 18:26:15;;;;;;;6.13;4.57;;;8.00;99.90;;;;;;6185912;23;20473;-88
2022/02/10 18:28:53;;;;;;;6.27;4.07;;;7.90;99.90;;;;;;6201223;23;20467;-88
2022/02/10 19:05:39;;;;;;;6.10;4.87;;;7.70;99.90;;;;;;6220275;23;20365;-85
2022/02/10 19:10:10;;;;;;;8.00;6.87;;;7.70;99.90;;;;;;6223085;23;20795;-86
2022/02/10 19:12:49;;;;;;;6.20;5.43;;;7.70;99.90;;;;;;6184869;23;20388;-86
2022/02/10 19:15:22;;;;;;;5.57;4.63;;;7.80;99.90;;;;;;6190138;23;20720;-87
2022/02/10 19:17:49;;;;;;;4.70;4.30;;;7.70;99.90;;;;;;6191795;23;20813;-87
2022/02/10 19:20:16;;;;;;;6.00;5.03;;;7.80;99.90;;;;;;6190488;23;20442;-86
2022/02/10 19:22:44;;;;;;;5.60;5.10;;;7.80;99.90;;;;;;6190877;23;20749;-85
2022/02/10 19:25:12;;;;;;;6.63;4.60;;;7.80;99.90;;;;;;6191395;23;20400;-85
2022/02/10 19:27:40;;;;;;;6.10;4.73;;;7.70;99.90;;;;;;6189864;23;20388;-83
2022/02/10 19:30:09;;;;;;;5.67;5.07;;;7.70;99.90;;;;;;6190998;23;20704;-84
2022/02/10 19:32:35;;;;;;;6.50;5.33;;;7.80;99.90;;;;;;6190708;23;20434;-85
2022/02/10 19:35:01;;;;;;;8.23;5.90;;;7.80;99.90;;;;;;6189869;23;20467;-85
2022/02/10 19:37:30;;;;;;;8.47;6.03;;;7.80;99.90;;;;;;6188959;23;20488;-86
2022/02/10 19:40:01;;;;;;;6.50;5.90;;;7.80;99.90;;;;;;6191419;23;20816;-85
2022/02/10 19:42:32;;;;;;;7.53;6.40;;;7.80;99.90;;;;;;6191428;23;20387;-85
2022/02/10 19:45:00;;;;;;;6.20;5.60;;;7.80;99.90;;;;;;6189595;23;21140;-85
2022/02/10 19:47:37;;;;;;;6.70;4.87;;;7.80;99.90;;;;;;6191373;23;20389;-84
2022/02/10 19:50:11;;;;;;;6.60;6.00;;;7.80;99.90;;;;;;6185965;23;20626;-85
2022/02/10 19:52:41;;;;;;;4.60;4.10;;;7.80;99.90;;;;;;6186777;23;20682;-84
2022/02/10 19:55:24;;;;;;;4.03;3.63;;;7.70;99.90;;;;;;6214531;23;20397;-85
2022/02/10 19:57:55;;;;;;;3.80;3.50;;;7.70;99.90;;;;;;6193160;23;20905;-85
2022/02/10 20:00:25;;;;;;;7.77;5.63;;;7.60;99.90;;;;;;6192398;23;20436;-85
2022/02/10 20:02:51;;;;;;;6.90;6.20;;;7.60;99.90;;;;;;6191796;23;20391;-85
2022/02/10 20:05:24;;;;;;;8.83;7.13;;;7.50;99.90;;;;;;6192653;23;20429;-86
2022/02/10 20:07:51;;;;;;;7.30;6.10;;;7.50;99.90;;;;;;6191108;23;20370;-86
2022/02/10 20:10:18;;;;;;;6.87;6.27;;;7.60;99.90;;;;;;6192355;23;20836;-86
2022/02/10 20:12:59;;;;;;;;;;;;;;;;;;;;;
2022/02/10 20:15:27;;;;;;;10.07;7.80;;;7.60;99.90;;;;;;6216900;23;20392;-85
2022/02/10 20:17:55;;;;;;;8.80;7.87;;;7.60;99.90;;;;;;6191821;23;20436;-84
2022/02/10 20:20:21;;;;;;;7.93;6.60;;;7.60;99.90;;;;;;6191128;23;20441;-85
2022/02/10 20:22:46;;;;;;;8.63;7.13;;;7.60;99.90;;;;;;6190528;23;20894;-84
2022/02/10 20:25:12;;;;;;;7.73;6.93;;;7.50;99.90;;;;;;6190725;23;20162;-85
2022/02/10 20:27:39;;;;;;;7.13;6.43;;;7.40;99.90;;;;;;6191143;23;20592;-85
2022/02/10 20:30:07;;;;;;;8.30;6.30;;;7.50;99.90;;;;;;6189611;23;20396;-84
2022/02/10 20:32:32;;;;;;;8.00;6.80;;;7.40;99.90;;;;;;6187698;23;20445;-84
2022/02/10 20:34:58;;;;;;;6.30;5.70;;;7.40;99.90;;;;;;6189585;23;20417;-85
2022/02/10 20:37:25;;;;;;;11.40;8.10;;;7.40;99.90;;;;;;6190432;23;20216;-85
2022/02/10 20:39:51;;;;;;;11.60;8.20;;;7.30;99.90;;;;;;6190649;23;20423;-85
2022/02/10 20:42:22;;;;;;;8.57;6.47;;;7.30;99.90;;;;;;6191378;23;20408;-85
2022/02/10 20:45:11;;;;;;;;;;;;;;;;;;;;;
2022/02/10 20:48:13;;;;;;;;;;;;;;;;;;;;;
2022/02/10 20:51:13;;;;;;;;;;;;;;;;;;;;;
2022/02/10 21:04:03;;;;;;;9.63;5.80;;;7.30;99.90;;;;;;6195605;23;20394;-89
2022/02/10 21:24:25;;;;;;;;;;;;;;;;;;;;;
2022/02/10 21:30:53;;;;;;;8.53;3.93;;;6.90;99.90;;;;;;6179922;23;20391;-84
2022/02/10 21:37:00;;;;;;;3.40;3.10;;;7.00;99.90;;;;;;6214045;23;20699;-86
2022/02/10 21:59:22;;;;;;;3.13;2.93;;;7.10;99.90;;;;;;6185888;23;20921;-84
2022/02/10 22:09:59;;;;;;;6.20;3.13;;;7.00;99.90;;;;;;6217489;23;20890;-85
2022/02/10 22:20:57;;;;;;;3.77;3.00;;;6.70;99.90;;;;;;6217448;23;20373;-84
2022/02/10 22:23:36;;;;;;;3.97;3.67;;;6.70;99.90;;;;;;6193080;23;20511;-84
2022/02/10 22:26:17;;;;;;;;;;;;;;;;;;;;;
2022/02/10 22:35:51;;;;;;;4.07;3.07;;;7.00;99.90;;;;;;5965855;23;20399;-84
2022/02/10 22:38:22;;;;;;;4.97;3.30;;;7.00;99.90;;;;;;6193875;23;20825;-84
2022/02/10 22:44:21;;;;;;;;;;;;;;;;;;;;;
2022/02/10 22:46:50;;;;;;;3.33;3.13;;;7.10;99.90;;;;;;6207905;23;20716;-84
2022/02/10 22:49:33;;;;;;;;;;;;;;;;;;;;;
2022/02/10 22:52:37;;;;;;;4.30;3.80;;;7.10;99.90;;;;;;6220473;23;20889;-84
2022/02/10 22:58:39;;;;;;;;;;;;;;;;;;;;;
2022/02/10 23:01:09;;;;;;;5.90;5.30;;;7.00;99.90;;;;;;6214065;23;20382;-84
2022/02/10 23:03:41;;;;;;;6.27;5.67;;;6.90;99.90;;;;;;6188552;23;20803;-83
2022/02/10 23:06:14;;;;;;;7.73;5.83;;;6.90;99.90;;;;;;6188043;23;20849;-83
2022/02/10 23:11:51;;;;;;;6.90;5.83;;;6.80;99.90;;;;;;6155217;23;20394;-84
2022/02/10 23:14:31;;;;;;;7.20;5.57;;;6.90;99.90;;;;;;6188055;23;20381;-84
2022/02/10 23:17:17;;;;;;;6.33;5.57;;;7.00;99.90;;;;;;6188652;23;20407;-84
2022/02/10 23:20:05;;;;;;;5.30;4.80;;;7.00;99.90;;;;;;6191050;23;20492;-82
2022/02/10 23:22:35;;;;;;;6.27;5.67;;;7.10;99.90;;;;;;6189189;23;20392;-83
2022/02/10 23:25:24;;;;;;;;;;;;;;;;;;;;;
2022/02/10 23:27:53;;;;;;;6.60;6.00;;;7.10;99.90;;;;;;6218562;23;20371;-84
2022/02/10 23:31:11;;;;;;;6.00;5.40;;;7.20;99.90;;;;;;6187263;23;20429;-84
2022/02/10 23:33:50;;;;;;;5.80;4.93;;;7.20;99.90;;;;;;6178585;23;20499;-84
2022/02/10 23:42:26;;;;;;;6.07;5.47;;;7.20;99.90;;;;;;6228888;23;20367;-83
2022/02/10 23:44:55;;;;;;;6.27;4.80;;;7.20;99.90;;;;;;6194294;23;20379;-83
2022/02/10 23:47:31;;;;;;;4.70;4.30;;;7.10;99.90;;;;;;6191119;23;20820;-83
2022/02/10 23:49:59;;;;;;;5.20;4.70;;;7.00;99.90;;;;;;6192107;23;20969;-83
2022/02/10 23:52:46;;;;;;;;;;;;;;;;;;;;;
2022/02/10 23:55:19;;;;;;;6.33;5.70;;;7.10;99.90;;;;;;6222196;23;20361;-83
